Renderfarm Status:OK
Avg Time Per Frame:13.9 min/frame
Total Users Today:25
Total CPU Time Today:1886.08 Hours
Total Frames Waiting:753
Today's CPU Champion:sranap20 / 10 days 10 hr
Active Jobs
Job User Frames Renderer Total CPU Average Start End Status
8879 sranap20 250 rman 0 Hours 0 min 04/28 03:30 PM Rendering
8878 idahem20 80 rman 6.93 Hours 8.5 min 04/28 03:20 PM Rendering
8876 johnam20 250 rman 0 Hours 0 min 04/28 03:06 PM Ready
8875 ankemp20 3 mayatomr 0 Hours 0 min 04/28 02:37 PM Rendering
8873 apatel24 130 rman 0 Hours 0 min 04/28 02:19 PM Ready
8868 fagmal20 250 rman 23.06 Hours 57.6 min 04/28 01:17 PM Rendering
Completed Jobs
Job User Frames Renderer Total CPU Average Start End Speedup Status
8877 xitang20 120 mayatomr 7 Hours 3.5 min 04/28 03:16 PM 04/28 03:35 PM 21.4x Complete!
8874 sranap20 250 rman 8.96 Hours 4.7 min 04/28 02:31 PM 04/28 03:24 PM 10.1x Complete!
8872 jkriza20 4 mayatomr 0 Hours 0 min 04/28 02:08 PM 04/28 03:27 PM 0x Complete!
8871 idahem20 80 rman 4.31 Hours 3.3 min 04/28 01:25 PM 04/28 03:08 PM 2.5x Complete!
8870 gander22 50 arnold 17.97 Hours 21.6 min 04/28 01:24 PM 04/28 03:21 PM 9.2x Complete!
8869 lmidgl20 73 mayatomr 4.9 Hours 4 min 04/28 01:19 PM 04/28 02:36 PM 3.8x Complete!
8867 mrhima20 140 mayatomr 83.75 Hours 35.9 min 04/28 01:07 PM 04/28 03:09 PM 41.1x Complete!
8866 sranap20 250 rman 33.71 Hours 8.1 min 04/28 12:45 PM 04/28 02:26 PM 20x Complete!
8865 agilhe20 240 mayatomr 1.53 Hours 0.4 min 04/28 12:35 PM 04/28 12:39 PM 22.4x Complete!
8864 xitang20 96 mayatomr 37.98 Hours 23.7 min 04/28 12:15 PM 04/28 01:13 PM 39.4x Complete!
8863 xitang20 144 mayatomr 9.06 Hours 3.8 min 04/28 11:57 AM 04/28 12:12 PM 36.8x Complete!
8862 yichai20 86 houdini 1.67 Hours 1.2 min 04/28 11:41 AM 04/28 11:44 AM 31.5x Complete!
8861 lmidgl20 73 mayatomr 1.39 Hours 1.1 min 04/28 11:22 AM 04/28 11:29 AM 10.9x Complete!
8860 xitang20 73 mayatomr 20.33 Hours 16.7 min 04/28 11:19 AM 04/28 11:55 AM 33.8x Complete!
8859 yichai20 2 houdini 0.03 Hours 0.8 min 04/28 11:16 AM 04/28 11:17 AM 1.4x Complete!
8858 yichai20 50 houdini 0.62 Hours 0.7 min 04/28 11:07 AM 04/28 11:09 AM 13.7x Complete!
8857 johnam20 180 rman 63.23 Hours 21.1 min 04/28 10:45 AM 04/28 02:56 PM 15.1x Complete!
8856 svadda20 120 houdini 1.05 Hours 0.5 min 04/28 10:36 AM 04/28 10:38 AM 34.2x Complete!
8855 yonkoh20 250 rman 4.84 Hours 1.2 min 04/28 10:31 AM 04/28 10:57 AM 11.4x Complete!
8854 gander22 50 arnold 40.59 Hours 48.7 min 04/28 09:59 AM 04/28 12:26 PM 16.6x Complete!
8853 jelove20 70 houdini 7.42 Hours 6.4 min 04/28 08:22 AM 04/28 08:33 AM 40.3x Complete!
8852 thonda20 5 arnold 4.21 Hours 50.6 min 04/28 07:56 AM 04/28 02:53 PM 0.6x Complete!
8851 dansoo20 17 houdini 1.67 Hours 5.9 min 04/28 07:31 AM 04/28 07:39 AM 12.4x Complete!
8850 aracho20 96 mayatomr 7.46 Hours 4.7 min 04/28 06:47 AM 04/28 07:05 AM 25.6x Complete!
8849 mweldo20 161 houdini 10.36 Hours 3.9 min 04/28 05:34 AM 04/28 07:00 AM 7.2x Complete!
8848 awrigh32 240 houdini 1.93 Hours 0.5 min 04/28 04:10 AM 04/28 06:51 AM 0.7x Complete!
8847 csumme21 240 houdini 3.85 Hours 1 min 04/28 03:09 AM 04/28 06:50 AM 1x Complete!
8846 mmckin22 96 rman 13.22 Hours 8.3 min 04/28 02:30 AM 04/28 06:56 AM 3x Complete!
8845 zisong20 100 arnold 59.17 Hours 35.5 min 04/28 02:25 AM 04/28 09:11 AM 8.8x Complete!
8844 naboga20 49 houdini 0.85 Hours 1 min 04/28 01:38 AM 04/28 06:20 AM 0.2x Complete!
8843 aracho20 48 mayatomr 6.69 Hours 8.4 min 04/28 01:38 AM 04/28 06:46 AM 1.3x Complete!
8842 xitang20 164 mayatomr 97.54 Hours 35.7 min 04/28 01:11 AM 04/28 07:11 AM 16.3x Complete!
8841 nperez23 200 mayatomr 47.77 Hours 14.3 min 04/27 11:23 PM 04/28 12:58 PM 3.5x Complete!
8840 hsutar20 74 rman 15.03 Hours 12.2 min 04/27 10:47 PM 04/28 12:36 PM 1.1x Complete!
8839 ivfung20 81 rman 36.13 Hours 26.8 min 04/27 10:29 PM 04/28 12:17 PM 2.6x Complete!
8838 lmidgl20 73 mayatomr 1.52 Hours 1.3 min 04/27 10:10 PM 04/28 06:10 AM 0.2x Complete!
8837 gander22 51 arnold 40.16 Hours 47.2 min 04/27 09:59 PM 04/28 07:45 AM 4.1x Complete!
8836 agilhe20 240 mayatomr 3.49 Hours 0.9 min 04/27 09:49 PM 04/28 06:06 AM 0.4x Complete!
8835 jkriza20 180 mayatomr 26.95 Hours 9 min 04/27 09:46 PM 04/28 02:06 PM 1.7x Complete!
8834 cychau20 241 rman 79.17 Hours 19.7 min 04/27 09:36 PM 04/28 11:54 AM 5.5x Complete!
8833 kjohns45 180 mayatomr 24.49 Hours 8.2 min 04/27 09:27 PM 04/28 06:02 AM 2.9x Complete!
8832 jzielk20 3 arnold 0.02 Hours 0.4 min 04/27 08:19 PM 04/28 05:46 AM 0x Complete!
8831 yickng20 181 rman 61.67 Hours 20.4 min 04/27 08:05 PM 04/28 10:48 AM 4.2x Complete!
8830 jelove20 171 houdini 21.9 Hours 7.7 min 04/27 07:33 PM 04/28 05:51 AM 2.1x Complete!
8829 aburke24 120 houdini 57.3 Hours 28.6 min 04/27 06:20 PM 04/28 06:32 AM 4.7x Complete!
8828 aburke24 1 houdini 0 Hours 0 min 04/27 06:18 PM 04/27 06:20 PM 0x Complete!
8827 sranap20 250 rman 208.29 Hours 50 min 04/27 06:16 PM 04/28 10:55 AM 12.5x Complete!
8826 cbense21 250 rman 2.53 Hours 0.6 min 04/27 05:52 PM 04/28 05:45 AM 0.2x Complete!
8825 wezhao20 41 rman 19.72 Hours 28.9 min 04/27 05:25 PM 04/28 08:05 AM 1.3x Complete!
8824 yonkoh20 250 rman 1.83 Hours 0.4 min 04/27 05:09 PM 04/28 05:53 AM 0.1x Complete!
Copyright 2014 Savannah College of Art and Design